sensor_id;sensor_type;location;lat;lon;timestamp;temperature;humidity
26186;DHT22;20067;48.764;9.176;2023-08-06T00:00:24;17.50;91.30
26186;DHT22;20067;48.764;9.176;2023-08-06T00:02:50;17.40;91.30
26186;DHT22;20067;48.764;9.176;2023-08-06T00:05:16;17.40;91.30
26186;DHT22;20067;48.764;9.176;2023-08-06T00:07:49;17.50;91.30
26186;DHT22;20067;48.764;9.176;2023-08-06T00:10:16;17.70;91.30
26186;DHT22;20067;48.764;9.176;2023-08-06T00:12:43;17.70;91.30
26186;DHT22;20067;48.764;9.176;2023-08-06T00:15:09;17.90;91.30
26186;DHT22;20067;48.764;9.176;2023-08-06T00:17:35;18.00;91.30
26186;DHT22;20067;48.764;9.176;2023-08-06T00:20:03;17.90;91.30
26186;DHT22;20067;48.764;9.176;2023-08-06T00:22:31;17.90;91.30
26186;DHT22;20067;48.764;9.176;2023-08-06T00:24:57;17.80;91.30
26186;DHT22;20067;48.764;9.176;2023-08-06T00:27:23;17.70;91.30
26186;DHT22;20067;48.764;9.176;2023-08-06T00:29:49;17.40;91.30
26186;DHT22;20067;48.764;9.176;2023-08-06T00:32:15;17.30;91.30
26186;DHT22;20067;48.764;9.176;2023-08-06T00:34:43;17.40;91.30
26186;DHT22;20067;48.764;9.176;2023-08-06T00:37:09;17.20;91.30
26186;DHT22;20067;48.764;9.176;2023-08-06T00:39:35;17.00;91.30
26186;DHT22;20067;48.764;9.176;2023-08-06T00:42:02;17.20;91.30
26186;DHT22;20067;48.764;9.176;2023-08-06T00:44:29;17.40;91.30
26186;DHT22;20067;48.764;9.176;2023-08-06T00:46:57;17.60;91.30
26186;DHT22;20067;48.764;9.176;2023-08-06T00:49:22;17.70;91.30
26186;DHT22;20067;48.764;9.176;2023-08-06T00:51:50;17.30;91.30
26186;DHT22;20067;48.764;9.176;2023-08-06T00:54:16;17.40;91.30
26186;DHT22;20067;48.764;9.176;2023-08-06T00:56:43;17.30;91.30
26186;DHT22;20067;48.764;9.176;2023-08-06T00:59:10;17.30;91.30
26186;DHT22;20067;48.764;9.176;2023-08-06T01:01:39;17.20;91.30
26186;DHT22;20067;48.764;9.176;2023-08-06T01:04:05;17.40;91.30
26186;DHT22;20067;48.764;9.176;2023-08-06T01:12:25;17.00;91.30
26186;DHT22;20067;48.764;9.176;2023-08-06T01:15:24;16.90;91.30
26186;DHT22;20067;48.764;9.176;2023-08-06T01:17:56;16.80;91.30
26186;DHT22;20067;48.764;9.176;2023-08-06T01:20:30;17.10;91.30
26186;DHT22;20067;48.764;9.176;2023-08-06T01:22:55;17.00;91.30
26186;DHT22;20067;48.764;9.176;2023-08-06T01:25:28;17.10;91.30
26186;DHT22;20067;48.764;9.176;2023-08-06T01:28:01;17.30;91.30
26186;DHT22;20067;48.764;9.176;2023-08-06T01:30:31;17.30;91.30
26186;DHT22;20067;48.764;9.176;2023-08-06T01:33:04;17.10;91.30
26186;DHT22;20067;48.764;9.176;2023-08-06T01:35:32;17.00;91.30
26186;DHT22;20067;48.764;9.176;2023-08-06T01:38:00;16.80;91.30
26186;DHT22;20067;48.764;9.176;2023-08-06T01:40:27;16.80;91.30
26186;DHT22;20067;48.764;9.176;2023-08-06T01:42:54;16.70;91.30
26186;DHT22;20067;48.764;9.176;2023-08-06T01:45:23;16.70;91.30
26186;DHT22;20067;48.764;9.176;2023-08-06T01:47:51;16.80;91.30
26186;DHT22;20067;48.764;9.176;2023-08-06T01:50:17;16.80;91.30
26186;DHT22;20067;48.764;9.176;2023-08-06T01:52:42;16.80;91.30
26186;DHT22;20067;48.764;9.176;2023-08-06T01:55:09;16.80;91.30
26186;DHT22;20067;48.764;9.176;2023-08-06T01:57:35;16.80;91.30
26186;DHT22;20067;48.764;9.176;2023-08-06T02:00:00;16.80;91.30
26186;DHT22;20067;48.764;9.176;2023-08-06T02:02:26;16.70;91.30
26186;DHT22;20067;48.764;9.176;2023-08-06T02:05:07;16.60;91.30
26186;DHT22;20067;48.764;9.176;2023-08-06T02:07:34;16.60;91.30
26186;DHT22;20067;48.764;9.176;2023-08-06T02:09:59;16.50;91.30
26186;DHT22;20067;48.764;9.176;2023-08-06T02:12:26;16.50;91.30
26186;DHT22;20067;48.764;9.176;2023-08-06T02:14:53;16.30;91.30
26186;DHT22;20067;48.764;9.176;2023-08-06T02:17:18;16.20;91.30
26186;DHT22;20067;48.764;9.176;2023-08-06T02:19:45;16.30;91.30
26186;DHT22;20067;48.764;9.176;2023-08-06T02:22:11;16.50;91.30
26186;DHT22;20067;48.764;9.176;2023-08-06T02:24:36;16.40;91.30
26186;DHT22;20067;48.764;9.176;2023-08-06T02:27:03;16.30;91.30
26186;DHT22;20067;48.764;9.176;2023-08-06T02:29:29;16.30;91.30
26186;DHT22;20067;48.764;9.176;2023-08-06T02:31:55;16.10;91.30
26186;DHT22;20067;48.764;9.176;2023-08-06T02:34:21;16.10;91.30
26186;DHT22;20067;48.764;9.176;2023-08-06T02:36:49;16.10;91.30
26186;DHT22;20067;48.764;9.176;2023-08-06T02:39:14;15.90;91.30
26186;DHT22;20067;48.764;9.176;2023-08-06T02:41:40;15.80;91.30
26186;DHT22;20067;48.764;9.176;2023-08-06T02:44:06;15.90;91.30
26186;DHT22;20067;48.764;9.176;2023-08-06T02:46:32;15.90;91.30
26186;DHT22;20067;48.764;9.176;2023-08-06T02:48:57;16.10;91.30
26186;DHT22;20067;48.764;9.176;2023-08-06T02:51:24;16.00;91.30
26186;DHT22;20067;48.764;9.176;2023-08-06T02:53:50;16.20;91.30
26186;DHT22;20067;48.764;9.176;2023-08-06T02:56:16;16.30;91.30
26186;DHT22;20067;48.764;9.176;2023-08-06T02:58:41;16.30;91.30
26186;DHT22;20067;48.764;9.176;2023-08-06T03:01:07;16.30;91.30
26186;DHT22;20067;48.764;9.176;2023-08-06T03:03:33;16.20;91.30
26186;DHT22;20067;48.764;9.176;2023-08-06T03:05:59;16.20;91.30
26186;DHT22;20067;48.764;9.176;2023-08-06T03:08:25;16.10;91.30
26186;DHT22;20067;48.764;9.176;2023-08-06T03:10:52;16.10;91.30
26186;DHT22;20067;48.764;9.176;2023-08-06T03:13:18;16.00;91.30
26186;DHT22;20067;48.764;9.176;2023-08-06T03:15:55;16.20;91.30
26186;DHT22;20067;48.764;9.176;2023-08-06T03:18:21;16.30;91.30
26186;DHT22;20067;48.764;9.176;2023-08-06T03:20:47;16.20;91.30
26186;DHT22;20067;48.764;9.176;2023-08-06T03:23:14;16.20;91.30
26186;DHT22;20067;48.764;9.176;2023-08-06T03:25:39;16.10;91.30
26186;DHT22;20067;48.764;9.176;2023-08-06T03:28:06;16.10;91.30
26186;DHT22;20067;48.764;9.176;2023-08-06T03:30:32;16.20;91.30
26186;DHT22;20067;48.764;9.176;2023-08-06T03:32:57;16.10;91.30
26186;DHT22;20067;48.764;9.176;2023-08-06T03:35:23;16.10;91.30
26186;DHT22;20067;48.764;9.176;2023-08-06T03:37:50;16.10;91.30
26186;DHT22;20067;48.764;9.176;2023-08-06T03:40:15;16.20;91.30
26186;DHT22;20067;48.764;9.176;2023-08-06T03:42:44;16.10;91.30
26186;DHT22;20067;48.764;9.176;2023-08-06T03:45:10;16.20;91.30
26186;DHT22;20067;48.764;9.176;2023-08-06T03:47:36;16.20;91.30
26186;DHT22;20067;48.764;9.176;2023-08-06T03:50:01;16.20;91.30
26186;DHT22;20067;48.764;9.176;2023-08-06T03:52:30;16.10;91.30
26186;DHT22;20067;48.764;9.176;2023-08-06T03:54:55;16.10;91.30
26186;DHT22;20067;48.764;9.176;2023-08-06T03:57:21;16.10;91.30
26186;DHT22;20067;48.764;9.176;2023-08-06T03:59:46;16.10;91.30
26186;DHT22;20067;48.764;9.176;2023-08-06T04:02:15;16.10;91.30
26186;DHT22;20067;48.764;9.176;2023-08-06T04:04:41;16.10;91.30
26186;DHT22;20067;48.764;9.176;2023-08-06T04:07:07;16.10;91.30
26186;DHT22;20067;48.764;9.176;2023-08-06T04:09:33;16.00;91.30
26186;DHT22;20067;48.764;9.176;2023-08-06T04:11:58;15.80;91.30
26186;DHT22;20067;48.764;9.176;2023-08-06T04:14:27;15.90;91.30
26186;DHT22;20067;48.764;9.176;2023-08-06T04:16:53;16.00;91.30
26186;DHT22;20067;48.764;9.176;2023-08-06T04:19:18;15.90;91.30
26186;DHT22;20067;48.764;9.176;2023-08-06T04:21:44;15.80;91.30
26186;DHT22;20067;48.764;9.176;2023-08-06T04:24:10;15.80;91.30
26186;DHT22;20067;48.764;9.176;2023-08-06T04:26:37;15.90;91.30
26186;DHT22;20067;48.764;9.176;2023-08-06T04:29:04;15.60;91.30
26186;DHT22;20067;48.764;9.176;2023-08-06T04:31:29;15.60;91.30
26186;DHT22;20067;48.764;9.176;2023-08-06T04:33:55;15.90;91.30
26186;DHT22;20067;48.764;9.176;2023-08-06T04:36:21;16.10;91.30
26186;DHT22;20067;48.764;9.176;2023-08-06T04:38:46;16.20;91.30
26186;DHT22;20067;48.764;9.176;2023-08-06T04:41:12;16.00;91.30
26186;DHT22;20067;48.764;9.176;2023-08-06T04:43:39;16.30;91.30
26186;DHT22;20067;48.764;9.176;2023-08-06T04:46:05;16.60;91.30
26186;DHT22;20067;48.764;9.176;2023-08-06T04:48:31;16.80;91.30
26186;DHT22;20067;48.764;9.176;2023-08-06T04:50:58;16.70;91.30
26186;DHT22;20067;48.764;9.176;2023-08-06T04:53:23;16.50;91.30
26186;DHT22;20067;48.764;9.176;2023-08-06T04:55:50;16.10;91.30
26186;DHT22;20067;48.764;9.176;2023-08-06T04:58:17;16.00;91.30
26186;DHT22;20067;48.764;9.176;2023-08-06T05:00:42;15.90;91.30
26186;DHT22;20067;48.764;9.176;2023-08-06T05:03:09;15.90;91.30
26186;DHT22;20067;48.764;9.176;2023-08-06T05:05:35;15.90;91.30
26186;DHT22;20067;48.764;9.176;2023-08-06T05:08:01;15.90;91.30
26186;DHT22;20067;48.764;9.176;2023-08-06T05:10:27;16.00;91.30
26186;DHT22;20067;48.764;9.176;2023-08-06T05:12:54;16.00;91.30
26186;DHT22;20067;48.764;9.176;2023-08-06T05:15:19;16.00;91.30
26186;DHT22;20067;48.764;9.176;2023-08-06T05:17:46;16.10;91.30
26186;DHT22;20067;48.764;9.176;2023-08-06T05:20:11;16.10;91.30
26186;DHT22;20067;48.764;9.176;2023-08-06T05:22:38;16.10;91.30
26186;DHT22;20067;48.764;9.176;2023-08-06T05:25:05;16.10;91.30
26186;DHT22;20067;48.764;9.176;2023-08-06T05:27:31;16.10;91.30
26186;DHT22;20067;48.764;9.176;2023-08-06T05:29:57;16.20;91.30
26186;DHT22;20067;48.764;9.176;2023-08-06T05:32:23;16.30;91.30
26186;DHT22;20067;48.764;9.176;2023-08-06T05:34:49;16.40;91.30
26186;DHT22;20067;48.764;9.176;2023-08-06T05:37:15;16.40;91.30
26186;DHT22;20067;48.764;9.176;2023-08-06T05:39:40;16.30;91.30
26186;DHT22;20067;48.764;9.176;2023-08-06T05:42:06;16.40;91.30
26186;DHT22;20067;48.764;9.176;2023-08-06T05:44:32;16.50;91.30
26186;DHT22;20067;48.764;9.176;2023-08-06T05:46:58;16.60;91.30
26186;DHT22;20067;48.764;9.176;2023-08-06T05:49:25;16.70;91.30
26186;DHT22;20067;48.764;9.176;2023-08-06T05:51:52;16.60;91.30
26186;DHT22;20067;48.764;9.176;2023-08-06T05:54:20;16.60;91.30
26186;DHT22;20067;48.764;9.176;2023-08-06T05:56:46;16.50;91.30
26186;DHT22;20067;48.764;9.176;2023-08-06T05:59:11;16.70;91.30
26186;DHT22;20067;48.764;9.176;2023-08-06T06:01:38;16.70;91.30
26186;DHT22;20067;48.764;9.176;2023-08-06T06:04:04;16.70;91.30
26186;DHT22;20067;48.764;9.176;2023-08-06T06:06:34;16.60;91.30
26186;DHT22;20067;48.764;9.176;2023-08-06T06:08:59;16.70;91.30
26186;DHT22;20067;48.764;9.176;2023-08-06T06:11:26;16.70;91.30
26186;DHT22;20067;48.764;9.176;2023-08-06T06:13:52;16.40;91.30
26186;DHT22;20067;48.764;9.176;2023-08-06T06:16:18;16.40;91.30
26186;DHT22;20067;48.764;9.176;2023-08-06T06:18:43;16.40;91.30
26186;DHT22;20067;48.764;9.176;2023-08-06T06:21:10;16.40;91.30
26186;DHT22;20067;48.764;9.176;2023-08-06T06:23:37;16.30;91.30
26186;DHT22;20067;48.764;9.176;2023-08-06T06:26:02;16.30;91.30
26186;DHT22;20067;48.764;9.176;2023-08-06T06:28:36;16.20;91.30
26186;DHT22;20067;48.764;9.176;2023-08-06T06:31:04;16.30;91.30
26186;DHT22;20067;48.764;9.176;2023-08-06T06:33:29;16.30;91.30
26186;DHT22;20067;48.764;9.176;2023-08-06T06:35:55;16.30;91.30
26186;DHT22;20067;48.764;9.176;2023-08-06T06:38:21;16.30;91.30
26186;DHT22;20067;48.764;9.176;2023-08-06T06:40:55;16.30;91.30
26186;DHT22;20067;48.764;9.176;2023-08-06T06:43:21;16.20;91.30
26186;DHT22;20067;48.764;9.176;2023-08-06T06:45:46;16.20;91.30
26186;DHT22;20067;48.764;9.176;2023-08-06T06:48:16;16.30;91.30
26186;DHT22;20067;48.764;9.176;2023-08-06T06:50:42;16.40;91.30
26186;DHT22;20067;48.764;9.176;2023-08-06T06:53:08;16.40;91.30
26186;DHT22;20067;48.764;9.176;2023-08-06T06:55:33;16.50;91.30
26186;DHT22;20067;48.764;9.176;2023-08-06T06:57:59;16.40;91.30
26186;DHT22;20067;48.764;9.176;2023-08-06T07:00:24;16.50;91.30
26186;DHT22;20067;48.764;9.176;2023-08-06T07:02:50;16.60;91.30
26186;DHT22;20067;48.764;9.176;2023-08-06T07:05:16;16.40;91.30
26186;DHT22;20067;48.764;9.176;2023-08-06T07:07:41;16.40;91.30
26186;DHT22;20067;48.764;9.176;2023-08-06T07:10:08;16.40;91.30
26186;DHT22;20067;48.764;9.176;2023-08-06T07:12:34;16.20;91.30
26186;DHT22;20067;48.764;9.176;2023-08-06T07:15:01;16.20;91.30
26186;DHT22;20067;48.764;9.176;2023-08-06T07:17:27;16.20;91.30
26186;DHT22;20067;48.764;9.176;2023-08-06T07:19:52;16.20;91.30
26186;DHT22;20067;48.764;9.176;2023-08-06T07:22:18;16.00;91.30
26186;DHT22;20067;48.764;9.176;2023-08-06T07:24:43;16.00;91.30
26186;DHT22;20067;48.764;9.176;2023-08-06T07:27:09;15.90;91.30
26186;DHT22;20067;48.764;9.176;2023-08-06T07:29:34;15.80;91.30
26186;DHT22;20067;48.764;9.176;2023-08-06T07:32:00;15.90;91.30
26186;DHT22;20067;48.764;9.176;2023-08-06T07:34:26;15.80;91.30
26186;DHT22;20067;48.764;9.176;2023-08-06T07:36:51;15.80;91.30
26186;DHT22;20067;48.764;9.176;2023-08-06T07:39:17;15.80;91.30
26186;DHT22;20067;48.764;9.176;2023-08-06T07:41:43;15.90;91.30
26186;DHT22;20067;48.764;9.176;2023-08-06T07:44:11;15.90;91.30
26186;DHT22;20067;48.764;9.176;2023-08-06T07:46:36;16.00;91.30
26186;DHT22;20067;48.764;9.176;2023-08-06T07:49:02;16.10;91.30
26186;DHT22;20067;48.764;9.176;2023-08-06T07:51:28;16.10;91.30
26186;DHT22;20067;48.764;9.176;2023-08-06T07:53:54;16.20;91.30
26186;DHT22;20067;48.764;9.176;2023-08-06T07:56:19;16.30;91.30
26186;DHT22;20067;48.764;9.176;2023-08-06T07:58:45;16.20;91.30
26186;DHT22;20067;48.764;9.176;2023-08-06T08:01:10;16.20;91.30
26186;DHT22;20067;48.764;9.176;2023-08-06T08:03:36;16.10;91.30
26186;DHT22;20067;48.764;9.176;2023-08-06T08:06:02;16.10;91.30
26186;DHT22;20067;48.764;9.176;2023-08-06T08:08:27;16.10;91.30
26186;DHT22;20067;48.764;9.176;2023-08-06T08:10:54;16.00;91.30
26186;DHT22;20067;48.764;9.176;2023-08-06T08:13:20;16.20;91.30
26186;DHT22;20067;48.764;9.176;2023-08-06T08:15:46;16.30;91.30
26186;DHT22;20067;48.764;9.176;2023-08-06T08:18:12;16.40;91.30
26186;DHT22;20067;48.764;9.176;2023-08-06T08:20:37;16.50;91.30
26186;DHT22;20067;48.764;9.176;2023-08-06T08:23:03;16.60;91.30
26186;DHT22;20067;48.764;9.176;2023-08-06T08:25:28;16.60;91.30
26186;DHT22;20067;48.764;9.176;2023-08-06T08:27:55;16.50;91.30
26186;DHT22;20067;48.764;9.176;2023-08-06T08:30:21;16.60;91.30
26186;DHT22;20067;48.764;9.176;2023-08-06T08:32:47;16.60;91.30
26186;DHT22;20067;48.764;9.176;2023-08-06T08:35:13;16.80;91.30
26186;DHT22;20067;48.764;9.176;2023-08-06T08:37:43;16.90;91.30
26186;DHT22;20067;48.764;9.176;2023-08-06T08:40:09;16.80;91.30
26186;DHT22;20067;48.764;9.176;2023-08-06T08:42:36;16.70;91.30
26186;DHT22;20067;48.764;9.176;2023-08-06T08:45:04;16.50;91.30
26186;DHT22;20067;48.764;9.176;2023-08-06T08:47:30;16.60;91.30
26186;DHT22;20067;48.764;9.176;2023-08-06T08:49:57;16.70;91.30
26186;DHT22;20067;48.764;9.176;2023-08-06T08:52:24;16.40;91.30
26186;DHT22;20067;48.764;9.176;2023-08-06T08:54:51;16.40;91.30
26186;DHT22;20067;48.764;9.176;2023-08-06T08:57:18;16.30;91.30
26186;DHT22;20067;48.764;9.176;2023-08-06T08:59:44;16.40;91.30
26186;DHT22;20067;48.764;9.176;2023-08-06T09:02:12;16.60;91.30
26186;DHT22;20067;48.764;9.176;2023-08-06T09:04:39;16.70;91.30
26186;DHT22;20067;48.764;9.176;2023-08-06T09:07:07;16.70;91.30
26186;DHT22;20067;48.764;9.176;2023-08-06T09:09:34;16.80;91.30
26186;DHT22;20067;48.764;9.176;2023-08-06T09:12:10;16.70;91.30
26186;DHT22;20067;48.764;9.176;2023-08-06T09:14:37;16.70;91.30
26186;DHT22;20067;48.764;9.176;2023-08-06T09:17:04;17.10;91.30
26186;DHT22;20067;48.764;9.176;2023-08-06T09:19:30;17.10;91.30
26186;DHT22;20067;48.764;9.176;2023-08-06T09:21:56;17.20;91.30
26186;DHT22;20067;48.764;9.176;2023-08-06T09:24:21;17.40;91.30
26186;DHT22;20067;48.764;9.176;2023-08-06T09:26:47;17.30;91.30
26186;DHT22;20067;48.764;9.176;2023-08-06T09:29:13;17.40;91.30
26186;DHT22;20067;48.764;9.176;2023-08-06T09:34:15;17.70;91.30
26186;DHT22;20067;48.764;9.176;2023-08-06T09:36:42;17.40;91.30
26186;DHT22;20067;48.764;9.176;2023-08-06T09:39:19;17.50;91.30
26186;DHT22;20067;48.764;9.176;2023-08-06T09:41:45;17.50;91.30
26186;DHT22;20067;48.764;9.176;2023-08-06T09:44:21;17.10;91.30
26186;DHT22;20067;48.764;9.176;2023-08-06T09:46:54;17.10;91.30
26186;DHT22;20067;48.764;9.176;2023-08-06T09:49:24;17.10;91.30
26186;DHT22;20067;48.764;9.176;2023-08-06T09:51:54;17.00;91.30
26186;DHT22;20067;48.764;9.176;2023-08-06T09:54:24;17.40;91.30
26186;DHT22;20067;48.764;9.176;2023-08-06T09:56:53;17.70;91.30
26186;DHT22;20067;48.764;9.176;2023-08-06T09:59:19;17.70;91.30
26186;DHT22;20067;48.764;9.176;2023-08-06T10:01:45;17.60;91.30
26186;DHT22;20067;48.764;9.176;2023-08-06T10:04:14;17.80;91.30
26186;DHT22;20067;48.764;9.176;2023-08-06T10:06:42;17.80;91.30
26186;DHT22;20067;48.764;9.176;2023-08-06T10:09:09;17.60;91.30
26186;DHT22;20067;48.764;9.176;2023-08-06T10:11:36;17.60;91.30
26186;DHT22;20067;48.764;9.176;2023-08-06T10:14:14;17.40;91.30
26186;DHT22;20067;48.764;9.176;2023-08-06T10:16:42;17.30;91.30
26186;DHT22;20067;48.764;9.176;2023-08-06T10:19:10;17.20;91.30
26186;DHT22;20067;48.764;9.176;2023-08-06T10:21:40;17.10;91.30
26186;DHT22;20067;48.764;9.176;2023-08-06T10:24:08;17.20;91.30
26186;DHT22;20067;48.764;9.176;2023-08-06T10:26:37;17.30;91.30
26186;DHT22;20067;48.764;9.176;2023-08-06T10:29:35;17.30;91.30
26186;DHT22;20067;48.764;9.176;2023-08-06T10:32:01;17.10;91.30
26186;DHT22;20067;48.764;9.176;2023-08-06T10:34:53;17.20;91.30
26186;DHT22;20067;48.764;9.176;2023-08-06T10:37:19;17.20;91.30
26186;DHT22;20067;48.764;9.176;2023-08-06T10:39:52;17.30;91.30
26186;DHT22;20067;48.764;9.176;2023-08-06T10:42:36;17.10;91.30
26186;DHT22;20067;48.764;9.176;2023-08-06T10:45:15;17.30;91.30
26186;DHT22;20067;48.764;9.176;2023-08-06T10:47:42;17.20;91.30
26186;DHT22;20067;48.764;9.176;2023-08-06T10:50:11;17.20;91.30
26186;DHT22;20067;48.764;9.176;2023-08-06T10:52:38;17.20;91.30
26186;DHT22;20067;48.764;9.176;2023-08-06T10:55:04;17.20;91.30
26186;DHT22;20067;48.764;9.176;2023-08-06T10:57:30;17.20;91.30
26186;DHT22;20067;48.764;9.176;2023-08-06T10:59:55;17.30;91.30
26186;DHT22;20067;48.764;9.176;2023-08-06T11:02:21;17.40;91.30
26186;DHT22;20067;48.764;9.176;2023-08-06T11:04:48;17.50;91.30
26186;DHT22;20067;48.764;9.176;2023-08-06T11:07:13;17.70;91.30
26186;DHT22;20067;48.764;9.176;2023-08-06T11:09:39;18.00;91.30
26186;DHT22;20067;48.764;9.176;2023-08-06T11:12:11;18.80;91.30
26186;DHT22;20067;48.764;9.176;2023-08-06T11:14:36;18.70;91.30
26186;DHT22;20067;48.764;9.176;2023-08-06T11:17:04;18.10;91.30
26186;DHT22;20067;48.764;9.176;2023-08-06T11:19:30;18.00;91.30
26186;DHT22;20067;48.764;9.176;2023-08-06T11:21:56;17.60;91.30
26186;DHT22;20067;48.764;9.176;2023-08-06T11:24:24;17.60;91.30
26186;DHT22;20067;48.764;9.176;2023-08-06T11:26:49;17.40;91.30
26186;DHT22;20067;48.764;9.176;2023-08-06T11:29:15;17.60;91.30
26186;DHT22;20067;48.764;9.176;2023-08-06T11:31:41;17.70;91.30
26186;DHT22;20067;48.764;9.176;2023-08-06T11:34:07;17.80;91.30
26186;DHT22;20067;48.764;9.176;2023-08-06T11:36:37;18.00;91.30
26186;DHT22;20067;48.764;9.176;2023-08-06T11:39:05;17.80;91.30
26186;DHT22;20067;48.764;9.176;2023-08-06T11:41:31;17.50;91.30
26186;DHT22;20067;48.764;9.176;2023-08-06T11:43:58;17.30;91.30
26186;DHT22;20067;48.764;9.176;2023-08-06T11:46:23;17.20;91.30
26186;DHT22;20067;48.764;9.176;2023-08-06T11:48:51;17.40;91.30
26186;DHT22;20067;48.764;9.176;2023-08-06T11:51:17;17.20;91.30
26186;DHT22;20067;48.764;9.176;2023-08-06T11:53:48;17.20;91.30
26186;DHT22;20067;48.764;9.176;2023-08-06T11:56:14;17.10;91.30
26186;DHT22;20067;48.764;9.176;2023-08-06T11:58:41;17.10;91.30
26186;DHT22;20067;48.764;9.176;2023-08-06T12:01:07;16.80;91.30
26186;DHT22;20067;48.764;9.176;2023-08-06T12:03:38;16.80;91.30
26186;DHT22;20067;48.764;9.176;2023-08-06T12:06:04;16.60;91.30
26186;DHT22;20067;48.764;9.176;2023-08-06T12:08:29;16.60;91.30
26186;DHT22;20067;48.764;9.176;2023-08-06T12:10:55;16.70;91.30
26186;DHT22;20067;48.764;9.176;2023-08-06T12:13:20;16.70;91.30
26186;DHT22;20067;48.764;9.176;2023-08-06T12:15:46;16.40;91.30
26186;DHT22;20067;48.764;9.176;2023-08-06T12:18:12;16.30;91.30
26186;DHT22;20067;48.764;9.176;2023-08-06T12:20:37;16.30;91.30
26186;DHT22;20067;48.764;9.176;2023-08-06T12:23:04;16.50;91.30
26186;DHT22;20067;48.764;9.176;2023-08-06T12:25:29;16.70;91.30
26186;DHT22;20067;48.764;9.176;2023-08-06T12:27:55;16.90;91.30
26186;DHT22;20067;48.764;9.176;2023-08-06T12:30:21;17.00;91.30
26186;DHT22;20067;48.764;9.176;2023-08-06T12:32:47;16.80;91.30
26186;DHT22;20067;48.764;9.176;2023-08-06T12:35:12;17.00;91.30
26186;DHT22;20067;48.764;9.176;2023-08-06T12:37:39;17.10;91.30
26186;DHT22;20067;48.764;9.176;2023-08-06T12:40:05;17.20;91.30
26186;DHT22;20067;48.764;9.176;2023-08-06T12:42:31;17.40;91.30
26186;DHT22;20067;48.764;9.176;2023-08-06T12:44:57;17.90;91.30
26186;DHT22;20067;48.764;9.176;2023-08-06T12:47:23;18.00;91.00
26186;DHT22;20067;48.764;9.176;2023-08-06T12:49:49;17.90;90.60
26186;DHT22;20067;48.764;9.176;2023-08-06T12:52:15;17.90;89.90
26186;DHT22;20067;48.764;9.176;2023-08-06T12:54:42;17.70;90.40
26186;DHT22;20067;48.764;9.176;2023-08-06T12:57:07;17.80;90.80
26186;DHT22;20067;48.764;9.176;2023-08-06T12:59:33;17.90;91.20
26186;DHT22;20067;48.764;9.176;2023-08-06T13:01:59;17.90;90.50
26186;DHT22;20067;48.764;9.176;2023-08-06T13:04:25;17.60;91.30
26186;DHT22;20067;48.764;9.176;2023-08-06T13:06:51;17.60;91.30
26186;DHT22;20067;48.764;9.176;2023-08-06T13:09:17;17.70;90.90
26186;DHT22;20067;48.764;9.176;2023-08-06T13:11:43;17.70;90.60
26186;DHT22;20067;48.764;9.176;2023-08-06T13:14:13;17.90;90.20
26186;DHT22;20067;48.764;9.176;2023-08-06T13:16:41;17.80;89.70
26186;DHT22;20067;48.764;9.176;2023-08-06T13:19:07;18.00;89.80
26186;DHT22;20067;48.764;9.176;2023-08-06T13:24:06;17.90;88.70
26186;DHT22;20067;48.764;9.176;2023-08-06T13:26:31;18.20;88.60
26186;DHT22;20067;48.764;9.176;2023-08-06T13:28:58;18.50;88.10
26186;DHT22;20067;48.764;9.176;2023-08-06T13:31:24;18.60;87.50
26186;DHT22;20067;48.764;9.176;2023-08-06T13:33:50;18.70;87.30
26186;DHT22;20067;48.764;9.176;2023-08-06T13:36:16;18.60;86.10
26186;DHT22;20067;48.764;9.176;2023-08-06T13:38:42;18.30;86.30
26186;DHT22;20067;48.764;9.176;2023-08-06T13:41:08;17.90;86.60
26186;DHT22;20067;48.764;9.176;2023-08-06T13:43:33;18.00;87.60
26186;DHT22;20067;48.764;9.176;2023-08-06T13:45:59;18.20;87.00
26186;DHT22;20067;48.764;9.176;2023-08-06T13:48:25;17.90;86.20
26186;DHT22;20067;48.764;9.176;2023-08-06T13:50:50;17.80;87.10
26186;DHT22;20067;48.764;9.176;2023-08-06T13:53:16;17.80;87.30
26186;DHT22;20067;48.764;9.176;2023-08-06T13:55:41;17.60;87.80
26186;DHT22;20067;48.764;9.176;2023-08-06T13:58:07;17.50;88.40
26186;DHT22;20067;48.764;9.176;2023-08-06T14:00:35;17.80;87.40
26186;DHT22;20067;48.764;9.176;2023-08-06T14:03:01;18.10;87.60
26186;DHT22;20067;48.764;9.176;2023-08-06T14:05:26;18.10;86.50
26186;DHT22;20067;48.764;9.176;2023-08-06T14:07:52;18.00;86.60
26186;DHT22;20067;48.764;9.176;2023-08-06T14:10:17;18.20;86.70
26186;DHT22;20067;48.764;9.176;2023-08-06T14:12:43;18.20;86.90
26186;DHT22;20067;48.764;9.176;2023-08-06T14:15:10;18.00;86.50
26186;DHT22;20067;48.764;9.176;2023-08-06T14:17:36;17.90;87.10
26186;DHT22;20067;48.764;9.176;2023-08-06T14:20:02;17.80;87.40
26186;DHT22;20067;48.764;9.176;2023-08-06T14:22:30;18.10;87.30
26186;DHT22;20067;48.764;9.176;2023-08-06T14:24:57;18.50;86.00
26186;DHT22;20067;48.764;9.176;2023-08-06T14:27:23;18.40;85.30
26186;DHT22;20067;48.764;9.176;2023-08-06T14:29:48;18.10;85.20
26186;DHT22;20067;48.764;9.176;2023-08-06T14:32:14;17.90;86.10
26186;DHT22;20067;48.764;9.176;2023-08-06T14:34:43;17.90;86.40
26186;DHT22;20067;48.764;9.176;2023-08-06T14:37:10;18.20;85.30
26186;DHT22;20067;48.764;9.176;2023-08-06T14:39:36;18.00;85.70
26186;DHT22;20067;48.764;9.176;2023-08-06T14:42:02;17.80;87.00
26186;DHT22;20067;48.764;9.176;2023-08-06T14:44:28;17.80;87.50
26186;DHT22;20067;48.764;9.176;2023-08-06T14:46:54;17.40;88.80
26186;DHT22;20067;48.764;9.176;2023-08-06T14:49:19;17.20;90.00
26186;DHT22;20067;48.764;9.176;2023-08-06T14:51:45;17.00;91.30
26186;DHT22;20067;48.764;9.176;2023-08-06T14:54:11;17.10;91.30
26186;DHT22;20067;48.764;9.176;2023-08-06T14:56:36;17.20;91.30
26186;DHT22;20067;48.764;9.176;2023-08-06T14:59:02;17.20;91.30
26186;DHT22;20067;48.764;9.176;2023-08-06T15:01:28;16.90;91.30
26186;DHT22;20067;48.764;9.176;2023-08-06T15:03:53;16.90;91.30
26186;DHT22;20067;48.764;9.176;2023-08-06T15:06:19;16.80;91.30
26186;DHT22;20067;48.764;9.176;2023-08-06T15:08:45;16.80;91.30
26186;DHT22;20067;48.764;9.176;2023-08-06T15:11:13;17.00;91.30
26186;DHT22;20067;48.764;9.176;2023-08-06T15:13:40;17.30;91.30
26186;DHT22;20067;48.764;9.176;2023-08-06T15:16:05;17.80;91.30
26186;DHT22;20067;48.764;9.176;2023-08-06T15:18:31;18.20;91.30
26186;DHT22;20067;48.764;9.176;2023-08-06T15:20:57;18.80;88.30
26186;DHT22;20067;48.764;9.176;2023-08-06T15:23:23;18.60;87.60
26186;DHT22;20067;48.764;9.176;2023-08-06T15:25:49;19.00;87.10
26186;DHT22;20067;48.764;9.176;2023-08-06T15:28:14;19.40;85.60
26186;DHT22;20067;48.764;9.176;2023-08-06T15:30:40;19.20;84.40
26186;DHT22;20067;48.764;9.176;2023-08-06T15:33:10;19.20;85.10
26186;DHT22;20067;48.764;9.176;2023-08-06T15:35:36;19.10;85.40
26186;DHT22;20067;48.764;9.176;2023-08-06T15:38:01;19.10;84.50